sensor_id;sensor_type;location;lat;lon;timestamp;P1;durP1;ratioP1;P2;durP2;ratioP2
10450;SDS011;5273;51.290;6.918;2024-02-26T00:00:15;2.40;;;0.83;;
10450;SDS011;5273;51.290;6.918;2024-02-26T00:02:44;1.27;;;0.87;;
10450;SDS011;5273;51.290;6.918;2024-02-26T00:05:10;0.70;;;0.70;;
10450;SDS011;5273;51.290;6.918;2024-02-26T00:07:38;1.70;;;0.83;;
10450;SDS011;5273;51.290;6.918;2024-02-26T00:10:05;0.83;;;0.83;;
10450;SDS011;5273;51.290;6.918;2024-02-26T00:12:33;1.43;;;0.87;;
10450;SDS011;5273;51.290;6.918;2024-02-26T00:15:00;1.30;;;1.20;;
10450;SDS011;5273;51.290;6.918;2024-02-26T00:17:27;3.47;;;1.10;;
10450;SDS011;5273;51.290;6.918;2024-02-26T00:19:55;0.80;;;0.80;;
10450;SDS011;5273;51.290;6.918;2024-02-26T00:22:22;1.33;;;1.23;;
10450;SDS011;5273;51.290;6.918;2024-02-26T00:24:49;1.10;;;1.00;;
10450;SDS011;5273;51.290;6.918;2024-02-26T00:27:16;2.43;;;0.90;;
10450;SDS011;5273;51.290;6.918;2024-02-26T00:29:43;0.90;;;0.90;;
10450;SDS011;5273;51.290;6.918;2024-02-26T00:32:10;1.13;;;0.80;;
10450;SDS011;5273;51.290;6.918;2024-02-26T00:34:38;1.10;;;1.00;;
10450;SDS011;5273;51.290;6.918;2024-02-26T00:37:06;0.90;;;0.90;;
10450;SDS011;5273;51.290;6.918;2024-02-26T00:39:34;1.03;;;0.93;;
10450;SDS011;5273;51.290;6.918;2024-02-26T00:42:01;0.67;;;0.67;;
10450;SDS011;5273;51.290;6.918;2024-02-26T00:44:29;1.60;;;0.80;;
10450;SDS011;5273;51.290;6.918;2024-02-26T00:46:56;0.90;;;0.70;;
10450;SDS011;5273;51.290;6.918;2024-02-26T00:49:23;0.70;;;0.70;;
10450;SDS011;5273;51.290;6.918;2024-02-26T00:51:50;1.07;;;0.87;;
10450;SDS011;5273;51.290;6.918;2024-02-26T00:54:18;0.73;;;0.73;;
10450;SDS011;5273;51.290;6.918;2024-02-26T00:56:45;1.03;;;0.80;;
10450;SDS011;5273;51.290;6.918;2024-02-26T00:59:12;0.80;;;0.80;;
10450;SDS011;5273;51.290;6.918;2024-02-26T01:01:39;1.10;;;0.80;;
10450;SDS011;5273;51.290;6.918;2024-02-26T01:04:06;0.80;;;0.80;;
10450;SDS011;5273;51.290;6.918;2024-02-26T01:06:33;0.83;;;0.83;;
10450;SDS011;5273;51.290;6.918;2024-02-26T01:09:01;2.27;;;1.00;;
10450;SDS011;5273;51.290;6.918;2024-02-26T01:11:29;1.80;;;1.30;;
10450;SDS011;5273;51.290;6.918;2024-02-26T01:13:56;1.27;;;0.80;;
10450;SDS011;5273;51.290;6.918;2024-02-26T01:16:23;1.73;;;1.10;;
10450;SDS011;5273;51.290;6.918;2024-02-26T01:18:50;1.73;;;1.13;;
10450;SDS011;5273;51.290;6.918;2024-02-26T01:21:17;2.23;;;1.27;;
10450;SDS011;5273;51.290;6.918;2024-02-26T01:23:44;0.93;;;0.90;;
10450;SDS011;5273;51.290;6.918;2024-02-26T01:26:11;1.10;;;1.00;;
10450;SDS011;5273;51.290;6.918;2024-02-26T01:28:40;1.97;;;1.10;;
10450;SDS011;5273;51.290;6.918;2024-02-26T01:31:07;2.27;;;1.30;;
10450;SDS011;5273;51.290;6.918;2024-02-26T01:33:35;1.13;;;1.07;;
10450;SDS011;5273;51.290;6.918;2024-02-26T01:36:02;2.63;;;1.07;;
10450;SDS011;5273;51.290;6.918;2024-02-26T01:38:30;1.40;;;1.30;;
10450;SDS011;5273;51.290;6.918;2024-02-26T01:40:57;1.83;;;1.10;;
10450;SDS011;5273;51.290;6.918;2024-02-26T01:43:24;1.73;;;1.50;;
10450;SDS011;5273;51.290;6.918;2024-02-26T01:45:53;1.20;;;1.10;;
10450;SDS011;5273;51.290;6.918;2024-02-26T01:48:20;3.17;;;1.20;;
10450;SDS011;5273;51.290;6.918;2024-02-26T01:50:47;1.50;;;1.10;;
10450;SDS011;5273;51.290;6.918;2024-02-26T01:53:14;1.53;;;1.20;;
10450;SDS011;5273;51.290;6.918;2024-02-26T01:55:42;1.47;;;1.37;;
10450;SDS011;5273;51.290;6.918;2024-02-26T01:58:09;2.80;;;1.70;;
10450;SDS011;5273;51.290;6.918;2024-02-26T02:00:36;3.37;;;1.10;;
10450;SDS011;5273;51.290;6.918;2024-02-26T02:03:06;1.50;;;1.37;;
10450;SDS011;5273;51.290;6.918;2024-02-26T02:05:32;4.33;;;1.30;;
10450;SDS011;5273;51.290;6.918;2024-02-26T02:08:03;2.97;;;1.60;;
10450;SDS011;5273;51.290;6.918;2024-02-26T02:10:30;2.30;;;1.30;;
10450;SDS011;5273;51.290;6.918;2024-02-26T02:12:57;1.73;;;1.30;;
10450;SDS011;5273;51.290;6.918;2024-02-26T02:15:25;0.97;;;0.93;;
10450;SDS011;5273;51.290;6.918;2024-02-26T02:17:52;1.47;;;1.23;;
10450;SDS011;5273;51.290;6.918;2024-02-26T02:22:52;1.90;;;1.63;;
10450;SDS011;5273;51.290;6.918;2024-02-26T02:25:19;1.87;;;1.40;;
10450;SDS011;5273;51.290;6.918;2024-02-26T02:27:46;1.57;;;1.23;;
10450;SDS011;5273;51.290;6.918;2024-02-26T02:30:13;2.23;;;1.43;;
10450;SDS011;5273;51.290;6.918;2024-02-26T02:32:41;1.90;;;1.40;;
10450;SDS011;5273;51.290;6.918;2024-02-26T02:35:08;1.10;;;1.00;;
10450;SDS011;5273;51.290;6.918;2024-02-26T02:37:37;1.77;;;1.30;;
10450;SDS011;5273;51.290;6.918;2024-02-26T02:40:04;1.83;;;1.30;;
10450;SDS011;5273;51.290;6.918;2024-02-26T02:42:32;3.50;;;1.33;;
10450;SDS011;5273;51.290;6.918;2024-02-26T02:44:59;1.70;;;1.60;;
10450;SDS011;5273;51.290;6.918;2024-02-26T02:47:26;3.90;;;1.43;;
10450;SDS011;5273;51.290;6.918;2024-02-26T02:49:53;1.50;;;1.40;;
10450;SDS011;5273;51.290;6.918;2024-02-26T02:52:20;2.53;;;1.70;;
10450;SDS011;5273;51.290;6.918;2024-02-26T02:54:49;1.70;;;1.00;;
10450;SDS011;5273;51.290;6.918;2024-02-26T02:57:16;1.30;;;1.20;;
10450;SDS011;5273;51.290;6.918;2024-02-26T02:59:43;2.07;;;1.20;;
10450;SDS011;5273;51.290;6.918;2024-02-26T03:02:10;1.33;;;1.23;;
10450;SDS011;5273;51.290;6.918;2024-02-26T03:04:37;2.10;;;1.40;;
10450;SDS011;5273;51.290;6.918;2024-02-26T03:07:04;1.33;;;1.23;;
10450;SDS011;5273;51.290;6.918;2024-02-26T03:09:31;1.43;;;1.27;;
10450;SDS011;5273;51.290;6.918;2024-02-26T03:12:00;2.33;;;1.50;;
10450;SDS011;5273;51.290;6.918;2024-02-26T03:14:27;1.73;;;1.20;;
10450;SDS011;5273;51.290;6.918;2024-02-26T03:16:54;2.43;;;1.50;;
10450;SDS011;5273;51.290;6.918;2024-02-26T03:19:21;1.63;;;1.40;;
10450;SDS011;5273;51.290;6.918;2024-02-26T03:21:48;1.33;;;1.03;;
10450;SDS011;5273;51.290;6.918;2024-02-26T03:24:15;1.47;;;1.37;;
10450;SDS011;5273;51.290;6.918;2024-02-26T03:26:42;0.90;;;0.90;;
10450;SDS011;5273;51.290;6.918;2024-02-26T03:29:11;1.90;;;1.30;;
10450;SDS011;5273;51.290;6.918;2024-02-26T03:31:37;1.60;;;1.10;;
10450;SDS011;5273;51.290;6.918;2024-02-26T03:34:04;1.67;;;1.27;;
10450;SDS011;5273;51.290;6.918;2024-02-26T03:36:32;1.97;;;1.20;;
10450;SDS011;5273;51.290;6.918;2024-02-26T03:38:59;1.83;;;1.27;;
10450;SDS011;5273;51.290;6.918;2024-02-26T03:41:29;2.30;;;1.20;;
10450;SDS011;5273;51.290;6.918;2024-02-26T03:43:57;1.77;;;0.90;;
10450;SDS011;5273;51.290;6.918;2024-02-26T03:46:25;1.40;;;1.30;;
10450;SDS011;5273;51.290;6.918;2024-02-26T03:48:52;1.57;;;1.33;;
10450;SDS011;5273;51.290;6.918;2024-02-26T03:51:19;1.50;;;1.40;;
10450;SDS011;5273;51.290;6.918;2024-02-26T03:53:46;1.67;;;1.40;;
10450;SDS011;5273;51.290;6.918;2024-02-26T03:56:13;1.53;;;1.40;;
10450;SDS011;5273;51.290;6.918;2024-02-26T03:58:40;1.97;;;1.63;;
10450;SDS011;5273;51.290;6.918;2024-02-26T04:01:08;2.03;;;1.53;;
10450;SDS011;5273;51.290;6.918;2024-02-26T04:03:36;1.40;;;1.30;;
10450;SDS011;5273;51.290;6.918;2024-02-26T04:06:03;2.47;;;1.37;;
10450;SDS011;5273;51.290;6.918;2024-02-26T04:08:30;1.37;;;1.30;;
10450;SDS011;5273;51.290;6.918;2024-02-26T04:10:57;1.40;;;1.30;;
10450;SDS011;5273;51.290;6.918;2024-02-26T04:13:25;1.63;;;1.33;;
10450;SDS011;5273;51.290;6.918;2024-02-26T04:15:52;2.03;;;1.83;;
10450;SDS011;5273;51.290;6.918;2024-02-26T04:18:19;1.70;;;1.27;;
10450;SDS011;5273;51.290;6.918;2024-02-26T04:20:47;4.13;;;1.70;;
10450;SDS011;5273;51.290;6.918;2024-02-26T04:23:16;2.17;;;1.60;;
10450;SDS011;5273;51.290;6.918;2024-02-26T04:25:43;3.10;;;1.43;;
10450;SDS011;5273;51.290;6.918;2024-02-26T04:28:10;1.87;;;1.37;;
10450;SDS011;5273;51.290;6.918;2024-02-26T04:30:38;1.93;;;1.50;;
10450;SDS011;5273;51.290;6.918;2024-02-26T04:33:05;2.70;;;1.60;;
10450;SDS011;5273;51.290;6.918;2024-02-26T04:35:32;2.43;;;1.70;;
10450;SDS011;5273;51.290;6.918;2024-02-26T04:38:01;3.03;;;1.60;;
10450;SDS011;5273;51.290;6.918;2024-02-26T04:40:28;2.70;;;1.50;;
10450;SDS011;5273;51.290;6.918;2024-02-26T04:42:55;3.43;;;1.90;;
10450;SDS011;5273;51.290;6.918;2024-02-26T04:45:22;4.63;;;1.97;;
10450;SDS011;5273;51.290;6.918;2024-02-26T04:47:49;3.70;;;2.07;;
10450;SDS011;5273;51.290;6.918;2024-02-26T04:50:16;5.13;;;1.90;;
10450;SDS011;5273;51.290;6.918;2024-02-26T04:52:43;2.50;;;1.60;;
10450;SDS011;5273;51.290;6.918;2024-02-26T04:55:12;1.90;;;1.70;;
10450;SDS011;5273;51.290;6.918;2024-02-26T04:57:39;3.40;;;2.10;;
10450;SDS011;5273;51.290;6.918;2024-02-26T05:00:06;4.20;;;2.57;;
10450;SDS011;5273;51.290;6.918;2024-02-26T05:02:34;3.47;;;2.10;;
10450;SDS011;5273;51.290;6.918;2024-02-26T05:05:03;2.40;;;2.20;;
10450;SDS011;5273;51.290;6.918;2024-02-26T05:07:30;2.63;;;2.00;;
10450;SDS011;5273;51.290;6.918;2024-02-26T05:09:58;3.07;;;1.93;;
10450;SDS011;5273;51.290;6.918;2024-02-26T05:12:26;3.10;;;2.27;;
10450;SDS011;5273;51.290;6.918;2024-02-26T05:14:53;3.00;;;2.17;;
10450;SDS011;5273;51.290;6.918;2024-02-26T05:17:20;3.50;;;2.10;;
10450;SDS011;5273;51.290;6.918;2024-02-26T05:19:47;2.40;;;2.20;;
10450;SDS011;5273;51.290;6.918;2024-02-26T05:22:14;3.27;;;2.27;;
10450;SDS011;5273;51.290;6.918;2024-02-26T05:24:42;2.93;;;2.47;;
10450;SDS011;5273;51.290;6.918;2024-02-26T05:27:09;2.53;;;2.10;;
10450;SDS011;5273;51.290;6.918;2024-02-26T05:29:38;4.90;;;2.20;;
10450;SDS011;5273;51.290;6.918;2024-02-26T05:32:05;4.37;;;2.77;;
10450;SDS011;5273;51.290;6.918;2024-02-26T05:34:32;4.40;;;2.80;;
10450;SDS011;5273;51.290;6.918;2024-02-26T05:36:59;3.00;;;2.73;;
10450;SDS011;5273;51.290;6.918;2024-02-26T05:39:26;2.60;;;2.10;;
10450;SDS011;5273;51.290;6.918;2024-02-26T05:41:54;3.63;;;2.30;;
10450;SDS011;5273;51.290;6.918;2024-02-26T05:44:22;3.73;;;2.30;;
10450;SDS011;5273;51.290;6.918;2024-02-26T05:46:53;3.23;;;2.70;;
10450;SDS011;5273;51.290;6.918;2024-02-26T05:49:20;3.00;;;2.60;;
10450;SDS011;5273;51.290;6.918;2024-02-26T05:51:47;3.30;;;2.40;;
10450;SDS011;5273;51.290;6.918;2024-02-26T05:54:14;5.53;;;3.00;;
10450;SDS011;5273;51.290;6.918;2024-02-26T05:56:41;3.93;;;3.03;;
10450;SDS011;5273;51.290;6.918;2024-02-26T05:59:08;3.20;;;2.50;;
10450;SDS011;5273;51.290;6.918;2024-02-26T06:01:35;6.73;;;4.57;;
10450;SDS011;5273;51.290;6.918;2024-02-26T06:04:04;4.00;;;2.80;;
10450;SDS011;5273;51.290;6.918;2024-02-26T06:06:30;3.30;;;3.00;;
10450;SDS011;5273;51.290;6.918;2024-02-26T06:08:58;2.50;;;2.30;;
10450;SDS011;5273;51.290;6.918;2024-02-26T06:11:25;2.93;;;2.67;;
10450;SDS011;5273;51.290;6.918;2024-02-26T06:13:52;2.97;;;2.30;;
10450;SDS011;5273;51.290;6.918;2024-02-26T06:16:19;3.00;;;2.40;;
10450;SDS011;5273;51.290;6.918;2024-02-26T06:18:46;2.53;;;2.23;;
10450;SDS011;5273;51.290;6.918;2024-02-26T06:21:15;2.43;;;2.23;;
10450;SDS011;5273;51.290;6.918;2024-02-26T06:23:41;3.03;;;2.70;;
10450;SDS011;5273;51.290;6.918;2024-02-26T06:26:09;2.93;;;2.63;;
10450;SDS011;5273;51.290;6.918;2024-02-26T06:28:36;2.70;;;2.50;;
10450;SDS011;5273;51.290;6.918;2024-02-26T06:31:05;3.43;;;2.70;;
10450;SDS011;5273;51.290;6.918;2024-02-26T06:33:32;2.90;;;2.47;;
10450;SDS011;5273;51.290;6.918;2024-02-26T06:35:59;3.17;;;2.73;;
10450;SDS011;5273;51.290;6.918;2024-02-26T06:38:28;5.33;;;2.80;;
10450;SDS011;5273;51.290;6.918;2024-02-26T06:40:55;3.60;;;2.50;;
10450;SDS011;5273;51.290;6.918;2024-02-26T06:43:22;3.50;;;2.30;;
10450;SDS011;5273;51.290;6.918;2024-02-26T06:45:49;3.53;;;3.23;;
10450;SDS011;5273;51.290;6.918;2024-02-26T06:48:16;4.20;;;3.30;;
10450;SDS011;5273;51.290;6.918;2024-02-26T06:50:43;3.80;;;2.80;;
10450;SDS011;5273;51.290;6.918;2024-02-26T06:53:10;3.60;;;3.10;;
10450;SDS011;5273;51.290;6.918;2024-02-26T06:55:39;3.93;;;3.53;;
10450;SDS011;5273;51.290;6.918;2024-02-26T06:58:05;3.40;;;3.10;;
10450;SDS011;5273;51.290;6.918;2024-02-26T07:00:32;3.73;;;2.80;;
10450;SDS011;5273;51.290;6.918;2024-02-26T07:02:59;4.13;;;2.70;;
10450;SDS011;5273;51.290;6.918;2024-02-26T07:05:27;3.23;;;2.70;;
10450;SDS011;5273;51.290;6.918;2024-02-26T07:07:54;3.07;;;2.77;;
10450;SDS011;5273;51.290;6.918;2024-02-26T07:10:21;3.80;;;3.23;;
10450;SDS011;5273;51.290;6.918;2024-02-26T07:12:49;3.80;;;2.70;;
10450;SDS011;5273;51.290;6.918;2024-02-26T07:15:16;4.50;;;3.00;;
10450;SDS011;5273;51.290;6.918;2024-02-26T07:17:43;4.13;;;2.97;;
10450;SDS011;5273;51.290;6.918;2024-02-26T07:20:12;3.23;;;2.73;;
10450;SDS011;5273;51.290;6.918;2024-02-26T07:22:39;4.57;;;2.90;;
10450;SDS011;5273;51.290;6.918;2024-02-26T07:25:07;5.70;;;2.70;;
10450;SDS011;5273;51.290;6.918;2024-02-26T07:27:38;5.70;;;3.00;;
10450;SDS011;5273;51.290;6.918;2024-02-26T07:30:08;4.37;;;2.57;;
10450;SDS011;5273;51.290;6.918;2024-02-26T07:32:36;3.10;;;2.80;;
10450;SDS011;5273;51.290;6.918;2024-02-26T07:35:04;2.97;;;2.53;;
10450;SDS011;5273;51.290;6.918;2024-02-26T07:37:31;3.67;;;2.80;;
10450;SDS011;5273;51.290;6.918;2024-02-26T07:39:58;2.90;;;2.60;;
10450;SDS011;5273;51.290;6.918;2024-02-26T07:42:25;2.60;;;2.40;;
10450;SDS011;5273;51.290;6.918;2024-02-26T07:44:52;4.50;;;2.60;;
10450;SDS011;5273;51.290;6.918;2024-02-26T07:47:21;4.70;;;2.70;;
10450;SDS011;5273;51.290;6.918;2024-02-26T07:49:48;4.10;;;3.30;;
10450;SDS011;5273;51.290;6.918;2024-02-26T07:52:15;3.60;;;2.60;;
10450;SDS011;5273;51.290;6.918;2024-02-26T07:54:42;3.93;;;2.93;;
10450;SDS011;5273;51.290;6.918;2024-02-26T07:57:09;2.70;;;2.47;;
10450;SDS011;5273;51.290;6.918;2024-02-26T07:59:37;4.13;;;3.33;;
10450;SDS011;5273;51.290;6.918;2024-02-26T08:02:04;5.07;;;3.50;;
10450;SDS011;5273;51.290;6.918;2024-02-26T08:04:32;4.13;;;2.80;;
10450;SDS011;5273;51.290;6.918;2024-02-26T08:06:59;3.47;;;2.87;;
10450;SDS011;5273;51.290;6.918;2024-02-26T08:09:26;2.73;;;2.53;;
10450;SDS011;5273;51.290;6.918;2024-02-26T08:11:53;3.87;;;2.93;;
10450;SDS011;5273;51.290;6.918;2024-02-26T08:14:20;3.40;;;2.73;;
10450;SDS011;5273;51.290;6.918;2024-02-26T08:16:48;3.27;;;2.67;;
10450;SDS011;5273;51.290;6.918;2024-02-26T08:19:15;7.57;;;3.00;;
10450;SDS011;5273;51.290;6.918;2024-02-26T08:21:44;4.27;;;2.90;;
10450;SDS011;5273;51.290;6.918;2024-02-26T08:24:10;2.80;;;2.60;;
10450;SDS011;5273;51.290;6.918;2024-02-26T08:26:38;2.73;;;2.10;;
10450;SDS011;5273;51.290;6.918;2024-02-26T08:29:05;4.30;;;2.70;;
10450;SDS011;5273;51.290;6.918;2024-02-26T08:31:32;4.13;;;2.90;;
10450;SDS011;5273;51.290;6.918;2024-02-26T08:34:02;2.83;;;2.60;;
10450;SDS011;5273;51.290;6.918;2024-02-26T08:36:29;4.00;;;3.23;;
10450;SDS011;5273;51.290;6.918;2024-02-26T08:38:58;5.90;;;2.87;;
10450;SDS011;5273;51.290;6.918;2024-02-26T08:41:25;4.07;;;2.80;;
10450;SDS011;5273;51.290;6.918;2024-02-26T08:43:52;3.23;;;2.93;;
10450;SDS011;5273;51.290;6.918;2024-02-26T08:46:19;2.77;;;2.13;;
10450;SDS011;5273;51.290;6.918;2024-02-26T08:48:47;3.30;;;2.50;;
10450;SDS011;5273;51.290;6.918;2024-02-26T08:51:14;3.40;;;3.03;;
10450;SDS011;5273;51.290;6.918;2024-02-26T08:53:41;4.23;;;3.10;;
10450;SDS011;5273;51.290;6.918;2024-02-26T08:56:10;8.27;;;4.40;;
10450;SDS011;5273;51.290;6.918;2024-02-26T08:58:41;5.43;;;3.70;;
10450;SDS011;5273;51.290;6.918;2024-02-26T09:01:09;4.40;;;3.13;;
10450;SDS011;5273;51.290;6.918;2024-02-26T09:03:36;4.47;;;3.80;;
10450;SDS011;5273;51.290;6.918;2024-02-26T09:06:03;6.53;;;3.53;;
10450;SDS011;5273;51.290;6.918;2024-02-26T09:08:31;4.63;;;3.63;;
10450;SDS011;5273;51.290;6.918;2024-02-26T09:11:00;3.80;;;3.07;;
10450;SDS011;5273;51.290;6.918;2024-02-26T09:13:29;5.93;;;3.47;;
10450;SDS011;5273;51.290;6.918;2024-02-26T09:15:56;3.20;;;2.90;;
10450;SDS011;5273;51.290;6.918;2024-02-26T09:18:23;5.07;;;3.50;;
10450;SDS011;5273;51.290;6.918;2024-02-26T09:20:51;4.80;;;3.13;;
10450;SDS011;5273;51.290;6.918;2024-02-26T09:23:18;3.07;;;2.77;;
10450;SDS011;5273;51.290;6.918;2024-02-26T09:25:45;5.53;;;2.90;;
10450;SDS011;5273;51.290;6.918;2024-02-26T09:28:12;5.07;;;2.90;;
10450;SDS011;5273;51.290;6.918;2024-02-26T09:30:43;3.87;;;2.70;;
10450;SDS011;5273;51.290;6.918;2024-02-26T09:33:10;3.00;;;2.70;;
10450;SDS011;5273;51.290;6.918;2024-02-26T09:35:37;2.93;;;2.63;;
10450;SDS011;5273;51.290;6.918;2024-02-26T09:38:04;6.40;;;2.60;;
10450;SDS011;5273;51.290;6.918;2024-02-26T09:40:31;3.83;;;2.27;;
10450;SDS011;5273;51.290;6.918;2024-02-26T09:42:59;3.53;;;2.80;;
10450;SDS011;5273;51.290;6.918;2024-02-26T09:45:27;3.83;;;2.33;;
10450;SDS011;5273;51.290;6.918;2024-02-26T09:47:58;3.90;;;2.90;;
10450;SDS011;5273;51.290;6.918;2024-02-26T09:50:24;4.10;;;2.73;;
10450;SDS011;5273;51.290;6.918;2024-02-26T09:52:52;3.90;;;3.00;;
10450;SDS011;5273;51.290;6.918;2024-02-26T09:55:19;4.03;;;2.27;;
10450;SDS011;5273;51.290;6.918;2024-02-26T09:57:46;4.60;;;2.53;;
10450;SDS011;5273;51.290;6.918;2024-02-26T10:00:14;4.30;;;3.10;;
10450;SDS011;5273;51.290;6.918;2024-02-26T10:02:44;3.13;;;2.70;;
10450;SDS011;5273;51.290;6.918;2024-02-26T10:05:14;4.20;;;2.80;;
10450;SDS011;5273;51.290;6.918;2024-02-26T10:07:43;3.20;;;2.57;;
10450;SDS011;5273;51.290;6.918;2024-02-26T10:10:10;2.83;;;2.50;;
10450;SDS011;5273;51.290;6.918;2024-02-26T10:12:38;6.03;;;2.60;;
10450;SDS011;5273;51.290;6.918;2024-02-26T10:15:05;3.17;;;2.77;;
10450;SDS011;5273;51.290;6.918;2024-02-26T10:17:32;3.87;;;3.10;;
10450;SDS011;5273;51.290;6.918;2024-02-26T10:20:10;6.13;;;2.80;;
10450;SDS011;5273;51.290;6.918;2024-02-26T10:22:39;4.77;;;2.93;;
10450;SDS011;5273;51.290;6.918;2024-02-26T10:25:07;3.07;;;2.77;;
10450;SDS011;5273;51.290;6.918;2024-02-26T10:27:34;3.60;;;2.83;;
10450;SDS011;5273;51.290;6.918;2024-02-26T10:30:02;3.90;;;2.97;;
10450;SDS011;5273;51.290;6.918;2024-02-26T10:32:29;5.23;;;4.23;;
10450;SDS011;5273;51.290;6.918;2024-02-26T10:34:57;6.87;;;3.67;;
10450;SDS011;5273;51.290;6.918;2024-02-26T10:37:24;5.30;;;3.20;;
10450;SDS011;5273;51.290;6.918;2024-02-26T10:39:53;4.10;;;3.10;;
10450;SDS011;5273;51.290;6.918;2024-02-26T10:42:19;3.57;;;2.87;;
10450;SDS011;5273;51.290;6.918;2024-02-26T10:44:46;3.70;;;3.17;;
10450;SDS011;5273;51.290;6.918;2024-02-26T10:47:14;3.20;;;2.90;;
10450;SDS011;5273;51.290;6.918;2024-02-26T10:49:45;4.97;;;3.37;;
10450;SDS011;5273;51.290;6.918;2024-02-26T10:52:12;5.87;;;3.33;;
10450;SDS011;5273;51.290;6.918;2024-02-26T10:54:41;4.47;;;3.80;;
10450;SDS011;5273;51.290;6.918;2024-02-26T10:57:12;4.57;;;3.40;;
10450;SDS011;5273;51.290;6.918;2024-02-26T10:59:40;5.40;;;3.50;;
10450;SDS011;5273;51.290;6.918;2024-02-26T11:02:09;3.50;;;3.20;;
10450;SDS011;5273;51.290;6.918;2024-02-26T11:04:37;4.73;;;2.77;;
10450;SDS011;5273;51.290;6.918;2024-02-26T11:07:05;4.20;;;3.23;;
10450;SDS011;5273;51.290;6.918;2024-02-26T11:09:32;3.70;;;3.10;;
10450;SDS011;5273;51.290;6.918;2024-02-26T11:12:00;5.03;;;3.27;;
10450;SDS011;5273;51.290;6.918;2024-02-26T11:14:31;3.43;;;3.13;;
10450;SDS011;5273;51.290;6.918;2024-02-26T11:16:58;5.20;;;3.80;;
10450;SDS011;5273;51.290;6.918;2024-02-26T11:19:25;5.70;;;3.97;;
10450;SDS011;5273;51.290;6.918;2024-02-26T11:21:54;4.00;;;3.60;;
10450;SDS011;5273;51.290;6.918;2024-02-26T11:24:21;4.07;;;3.50;;
10450;SDS011;5273;51.290;6.918;2024-02-26T11:26:49;6.73;;;3.73;;
10450;SDS011;5273;51.290;6.918;2024-02-26T11:29:23;4.57;;;3.50;;
10450;SDS011;5273;51.290;6.918;2024-02-26T11:31:54;5.87;;;3.60;;
10450;SDS011;5273;51.290;6.918;2024-02-26T11:34:21;4.23;;;3.63;;
10450;SDS011;5273;51.290;6.918;2024-02-26T11:36:49;4.20;;;3.80;;
10450;SDS011;5273;51.290;6.918;2024-02-26T11:39:16;4.57;;;3.93;;
10450;SDS011;5273;51.290;6.918;2024-02-26T11:41:43;4.87;;;4.23;;
10450;SDS011;5273;51.290;6.918;2024-02-26T11:44:10;9.30;;;4.50;;
10450;SDS011;5273;51.290;6.918;2024-02-26T11:46:38;6.23;;;4.07;;
10450;SDS011;5273;51.290;6.918;2024-02-26T11:51:58;7.80;;;4.83;;
10450;SDS011;5273;51.290;6.918;2024-02-26T11:54:38;6.37;;;4.87;;
10450;SDS011;5273;51.290;6.918;2024-02-26T11:57:19;8.20;;;5.27;;
10450;SDS011;5273;51.290;6.918;2024-02-26T11:59:49;6.93;;;4.97;;
10450;SDS011;5273;51.290;6.918;2024-02-26T12:05:14;7.10;;;5.63;;
10450;SDS011;5273;51.290;6.918;2024-02-26T12:07:46;6.43;;;5.47;;
10450;SDS011;5273;51.290;6.918;2024-02-26T12:10:20;8.80;;;5.37;;
10450;SDS011;5273;51.290;6.918;2024-02-26T12:12:52;7.83;;;5.47;;
10450;SDS011;5273;51.290;6.918;2024-02-26T12:15:22;8.13;;;6.03;;
10450;SDS011;5273;51.290;6.918;2024-02-26T12:17:51;8.07;;;5.60;;
10450;SDS011;5273;51.290;6.918;2024-02-26T12:20:20;8.77;;;6.37;;
10450;SDS011;5273;51.290;6.918;2024-02-26T12:22:49;8.07;;;6.03;;
10450;SDS011;5273;51.290;6.918;2024-02-26T12:25:17;9.07;;;6.23;;
10450;SDS011;5273;51.290;6.918;2024-02-26T12:27:47;10.70;;;6.83;;
10450;SDS011;5273;51.290;6.918;2024-02-26T12:30:14;7.97;;;5.97;;
10450;SDS011;5273;51.290;6.918;2024-02-26T12:32:41;7.93;;;5.47;;
10450;SDS011;5273;51.290;6.918;2024-02-26T12:35:08;9.10;;;6.07;;
10450;SDS011;5273;51.290;6.918;2024-02-26T12:37:37;8.77;;;6.03;;
10450;SDS011;5273;51.290;6.918;2024-02-26T12:40:04;9.30;;;6.60;;
10450;SDS011;5273;51.290;6.918;2024-02-26T12:42:33;7.97;;;5.83;;
10450;SDS011;5273;51.290;6.918;2024-02-26T12:45:04;12.53;;;8.03;;
10450;SDS011;5273;51.290;6.918;2024-02-26T12:47:34;8.93;;;6.20;;
10450;SDS011;5273;51.290;6.918;2024-02-26T12:50:02;8.37;;;6.03;;
10450;SDS011;5273;51.290;6.918;2024-02-26T12:52:29;11.57;;;6.20;;
10450;SDS011;5273;51.290;6.918;2024-02-26T12:54:58;9.73;;;6.63;;
10450;SDS011;5273;51.290;6.918;2024-02-26T12:57:26;12.23;;;7.63;;
10450;SDS011;5273;51.290;6.918;2024-02-26T12:59:55;10.17;;;7.13;;
10450;SDS011;5273;51.290;6.918;2024-02-26T13:02:22;8.47;;;6.47;;
10450;SDS011;5273;51.290;6.918;2024-02-26T13:04:49;8.00;;;6.50;;
10450;SDS011;5273;51.290;6.918;2024-02-26T13:07:17;13.23;;;7.47;;
10450;SDS011;5273;51.290;6.918;2024-02-26T13:09:44;11.50;;;7.07;;
10450;SDS011;5273;51.290;6.918;2024-02-26T13:12:13;10.73;;;6.60;;
10450;SDS011;5273;51.290;6.918;2024-02-26T13:14:40;9.13;;;6.27;;
10450;SDS011;5273;51.290;6.918;2024-02-26T13:17:07;8.97;;;6.23;;
10450;SDS011;5273;51.290;6.918;2024-02-26T13:19:34;10.20;;;6.30;;
10450;SDS011;5273;51.290;6.918;2024-02-26T13:22:04;8.10;;;6.23;;
10450;SDS011;5273;51.290;6.918;2024-02-26T13:24:32;9.37;;;6.57;;
10450;SDS011;5273;51.290;6.918;2024-02-26T13:26:59;9.03;;;6.60;;
10450;SDS011;5273;51.290;6.918;2024-02-26T13:29:29;9.50;;;6.80;;
10450;SDS011;5273;51.290;6.918;2024-02-26T13:31:57;8.17;;;5.90;;
10450;SDS011;5273;51.290;6.918;2024-02-26T13:34:24;7.80;;;6.27;;
10450;SDS011;5273;51.290;6.918;2024-02-26T13:36:52;9.13;;;6.10;;
10450;SDS011;5273;51.290;6.918;2024-02-26T13:39:22;7.87;;;5.60;;
10450;SDS011;5273;51.290;6.918;2024-02-26T13:41:50;8.97;;;5.70;;
10450;SDS011;5273;51.290;6.918;2024-02-26T13:44:17;7.33;;;5.90;;
10450;SDS011;5273;51.290;6.918;2024-02-26T13:46:45;9.57;;;5.53;;
10450;SDS011;5273;51.290;6.918;2024-02-26T13:49:12;6.80;;;5.57;;
10450;SDS011;5273;51.290;6.918;2024-02-26T13:51:39;9.60;;;5.60;;
10450;SDS011;5273;51.290;6.918;2024-02-26T13:54:06;7.90;;;6.07;;
10450;SDS011;5273;51.290;6.918;2024-02-26T13:56:34;9.37;;;5.93;;
10450;SDS011;5273;51.290;6.918;2024-02-26T13:59:01;6.97;;;5.40;;
10450;SDS011;5273;51.290;6.918;2024-02-26T14:01:28;7.43;;;5.63;;
10450;SDS011;5273;51.290;6.918;2024-02-26T14:03:59;9.83;;;5.67;;
10450;SDS011;5273;51.290;6.918;2024-02-26T14:06:27;9.60;;;5.80;;
10450;SDS011;5273;51.290;6.918;2024-02-26T14:08:55;6.93;;;5.20;;
10450;SDS011;5273;51.290;6.918;2024-02-26T14:11:22;6.83;;;5.13;;
10450;SDS011;5273;51.290;6.918;2024-02-26T14:13:50;8.27;;;5.23;;
10450;SDS011;5273;51.290;6.918;2024-02-26T14:16:17;7.20;;;5.07;;
10450;SDS011;5273;51.290;6.918;2024-02-26T14:18:45;6.93;;;5.23;;
10450;SDS011;5273;51.290;6.918;2024-02-26T14:21:14;6.97;;;4.37;;
10450;SDS011;5273;51.290;6.918;2024-02-26T14:23:41;6.40;;;4.77;;
10450;SDS011;5273;51.290;6.918;2024-02-26T14:26:09;6.73;;;4.83;;
10450;SDS011;5273;51.290;6.918;2024-02-26T14:28:36;7.43;;;4.80;;
10450;SDS011;5273;51.290;6.918;2024-02-26T14:31:05;6.23;;;4.73;;
10450;SDS011;5273;51.290;6.918;2024-02-26T14:33:32;5.80;;;4.90;;
10450;SDS011;5273;51.290;6.918;2024-02-26T14:35:58;6.10;;;4.60;;
10450;SDS011;5273;51.290;6.918;2024-02-26T14:38:28;5.50;;;4.40;;
10450;SDS011;5273;51.290;6.918;2024-02-26T14:40:55;5.37;;;4.30;;
10450;SDS011;5273;51.290;6.918;2024-02-26T14:43:22;6.73;;;4.40;;
10450;SDS011;5273;51.290;6.918;2024-02-26T14:45:49;6.30;;;4.00;;
10450;SDS011;5273;51.290;6.918;2024-02-26T14:48:17;5.30;;;3.93;;
10450;SDS011;5273;51.290;6.918;2024-02-26T14:50:44;6.83;;;3.90;;
10450;SDS011;5273;51.290;6.918;2024-02-26T14:53:11;5.50;;;4.40;;
10450;SDS011;5273;51.290;6.918;2024-02-26T14:55:39;6.37;;;4.37;;
10450;SDS011;5273;51.290;6.918;2024-02-26T14:58:06;6.00;;;4.17;;
10450;SDS011;5273;51.290;6.918;2024-02-26T15:00:36;6.67;;;4.40;;
10450;SDS011;5273;51.290;6.918;2024-02-26T15:03:03;4.87;;;4.00;;
10450;SDS011;5273;51.290;6.918;2024-02-26T15:05:30;6.37;;;4.50;;
10450;SDS011;5273;51.290;6.918;2024-02-26T15:07:57;6.27;;;4.23;;
10450;SDS011;5273;51.290;6.918;2024-02-26T15:10:25;6.30;;;4.57;;